createdAt,value
2019-02-21T00:01:51.213Z,26.35
2019-02-21T00:04:18.187Z,26.25
2019-02-21T00:06:45.166Z,28.15
2019-02-21T00:09:12.094Z,31.85
2019-02-21T00:11:39.032Z,26.87
2019-02-21T00:14:06.038Z,29.07
2019-02-21T00:16:32.924Z,24.37
2019-02-21T00:18:59.829Z,34.03
2019-02-21T00:21:26.765Z,31.33
2019-02-21T00:23:53.685Z,30.65
2019-02-21T00:26:20.597Z,27.07
2019-02-21T00:28:47.650Z,33.78
2019-02-21T00:31:14.542Z,30.40
2019-02-21T00:33:41.458Z,31.85
2019-02-21T00:36:08.372Z,29.25
2019-02-21T00:38:35.272Z,30.45
2019-02-21T00:41:02.196Z,30.35
2019-02-21T00:43:29.113Z,32.65
2019-02-21T00:45:55.993Z,22.32
2019-02-21T00:48:22.930Z,27.75
2019-02-21T00:50:50.045Z,34.20
2019-02-21T00:53:16.952Z,32.53
2019-02-21T00:55:43.858Z,29.87
2019-02-21T00:58:11.018Z,27.30
2019-02-21T01:00:46.224Z,29.12
2019-02-21T01:03:06.714Z,19.35
2019-02-21T01:05:33.866Z,34.00
2019-02-21T01:08:00.773Z,27.48
2019-02-21T01:10:27.669Z,22.00
2019-02-21T01:12:54.821Z,36.65
2019-02-21T01:15:21.718Z,34.63
2019-02-21T01:17:48.633Z,32.28
2019-02-21T01:20:15.568Z,32.17
2019-02-21T01:22:42.484Z,37.98
2019-02-21T01:25:09.388Z,25.80
2019-02-21T01:27:36.312Z,32.93
2019-02-21T01:30:03.590Z,40.73
2019-02-21T01:32:30.492Z,29.63
2019-02-21T01:34:57.426Z,35.25
2019-02-21T01:37:24.330Z,33.98
2019-02-21T01:39:51.244Z,41.77
2019-02-21T01:42:18.177Z,39.33
2019-02-21T01:44:45.094Z,32.70
2019-02-21T01:47:11.995Z,27.93
2019-02-21T01:49:38.916Z,30.85
2019-02-21T01:52:05.818Z,31.12
2019-02-21T01:54:32.729Z,30.52
2019-02-21T01:56:59.922Z,32.25
2019-02-21T01:59:26.820Z,32.90
2019-02-21T02:01:53.777Z,26.42
2019-02-21T02:04:20.697Z,31.73
2019-02-21T02:06:47.592Z,27.40
2019-02-21T02:09:14.529Z,26.50
2019-02-21T02:11:41.448Z,32.93
2019-02-21T02:14:08.372Z,34.95
2019-02-21T02:16:35.302Z,37.38
2019-02-21T02:19:02.221Z,32.88
2019-02-21T02:21:29.127Z,38.60
2019-02-21T02:23:56.025Z,39.53
2019-02-21T02:26:23.079Z,40.83
2019-02-21T02:28:49.992Z,34.50
2019-02-21T02:31:22.592Z,39.67
2019-02-21T02:33:45.769Z,24.00
2019-02-21T02:36:12.713Z,40.25
2019-02-21T02:38:39.789Z,44.65
2019-02-21T02:41:06.907Z,28.02
2019-02-21T02:43:33.984Z,31.30
2019-02-21T02:46:00.921Z,38.13
2019-02-21T02:48:27.894Z,27.45
2019-02-21T02:50:54.869Z,26.65
2019-02-21T02:53:21.797Z,31.52
2019-02-21T02:55:48.786Z,41.95
2019-02-21T02:58:15.743Z,33.88
2019-02-21T03:00:42.761Z,36.75
2019-02-21T03:03:09.728Z,34.20
2019-02-21T03:05:36.657Z,31.10
2019-02-21T03:08:03.893Z,35.75
2019-02-21T03:10:30.879Z,29.35
2019-02-21T03:12:57.797Z,28.77
2019-02-21T03:15:24.747Z,37.03
2019-02-21T03:17:51.698Z,34.08
2019-02-21T03:20:18.643Z,34.58
2019-02-21T03:22:45.573Z,40.92
2019-02-21T03:25:12.529Z,26.68
2019-02-21T03:27:39.480Z,36.23
2019-02-21T03:30:11.918Z,31.30
2019-02-21T03:32:36.133Z,34.95
2019-02-21T03:35:03.208Z,39.25
2019-02-21T03:37:30.200Z,32.88
2019-02-21T03:39:57.326Z,36.80
2019-02-21T03:42:24.256Z,36.98
2019-02-21T03:44:51.210Z,37.78
2019-02-21T03:47:18.174Z,30.02
2019-02-21T03:49:45.156Z,26.52
2019-02-21T03:52:12.096Z,37.35
2019-02-21T03:54:39.073Z,39.03
2019-02-21T03:57:06.005Z,28.62
2019-02-21T03:59:32.961Z,31.62
2019-02-21T04:02:05.465Z,36.23
2019-02-21T04:04:28.763Z,33.70
2019-02-21T04:06:55.688Z,34.73
2019-02-21T04:09:22.909Z,29.40
2019-02-21T04:11:49.888Z,42.75
2019-02-21T04:14:17.221Z,44.65
2019-02-21T04:16:44.184Z,41.55
2019-02-21T04:19:11.130Z,34.67
2019-02-21T04:21:38.094Z,43.10
2019-02-21T04:24:05.049Z,35.52
2019-02-21T04:26:32.030Z,40.55
2019-02-21T04:28:59.051Z,30.32
2019-02-21T04:31:26.040Z,40.85
2019-02-21T04:33:52.978Z,32.95
2019-02-21T04:36:19.942Z,31.05
2019-02-21T04:38:46.901Z,37.15
2019-02-21T04:41:13.845Z,35.30
2019-02-21T04:43:40.772Z,32.85
2019-02-21T04:46:07.816Z,41.13
2019-02-21T04:48:34.752Z,42.90
2019-02-21T04:51:01.706Z,40.50
2019-02-21T04:53:28.683Z,42.67
2019-02-21T04:55:55.632Z,30.75
2019-02-21T04:58:22.568Z,39.38
2019-02-21T05:00:49.633Z,48.20
2019-02-21T05:03:16.652Z,44.75
2019-02-21T05:05:43.618Z,46.70
2019-02-21T05:08:10.642Z,34.45
2019-02-21T05:10:37.575Z,40.38
2019-02-21T05:13:04.628Z,23.65
2019-02-21T05:15:31.741Z,39.08
2019-02-21T05:17:58.725Z,45.73
2019-02-21T05:20:25.686Z,35.68
2019-02-21T05:22:52.716Z,35.33
2019-02-21T05:25:19.645Z,37.95
2019-02-21T05:27:51.817Z,32.65
2019-02-21T05:30:21.725Z,42.20
2019-02-21T05:33:06.017Z,27.90
2019-02-21T05:35:38.762Z,28.85
2019-02-21T05:38:31.722Z,39.65
2019-02-21T05:41:15.450Z,30.65
2019-02-21T05:44:04.833Z,44.93
2019-02-21T05:46:50.200Z,35.00
2019-02-21T05:49:36.602Z,35.90
2019-02-21T05:52:09.285Z,43.17
2019-02-21T05:54:54.388Z,36.83
2019-02-21T05:57:53.092Z,46.40
2019-02-21T06:00:54.574Z,39.85
2019-02-21T06:03:53.580Z,43.28
2019-02-21T06:06:38.645Z,48.92
2019-02-21T06:09:12.039Z,36.42
2019-02-21T06:12:04.491Z,38.80
2019-02-21T06:14:51.103Z,46.08
2019-02-21T06:17:34.238Z,46.18
2019-02-21T06:20:10.730Z,37.67
2019-02-21T06:22:59.963Z,45.55
2019-02-21T06:25:50.529Z,51.02
2019-02-21T06:28:29.607Z,39.00
2019-02-21T06:31:09.149Z,40.35
2019-02-21T06:33:36.118Z,51.02
2019-02-21T06:36:03.123Z,46.68
2019-02-21T06:38:30.073Z,44.98
2019-02-21T06:40:57.070Z,49.73
2019-02-21T06:43:24.105Z,43.83
2019-02-21T06:45:51.213Z,42.95
2019-02-21T06:48:18.160Z,38.53
2019-02-21T06:50:47.421Z,36.08
2019-02-21T06:53:14.009Z,40.70
2019-02-21T06:55:40.959Z,50.75
2019-02-21T06:58:07.921Z,43.80
2019-02-21T07:00:34.875Z,46.63
2019-02-21T07:03:01.817Z,37.98
2019-02-21T07:05:28.788Z,48.83
2019-02-21T07:07:55.735Z,51.10
2019-02-21T07:10:22.666Z,47.05
2019-02-21T07:12:49.644Z,39.65
2019-02-21T07:15:16.586Z,38.10
2019-02-21T07:17:49.166Z,40.83
2019-02-21T07:20:13.058Z,48.63
2019-02-21T07:22:40.201Z,39.20
2019-02-21T07:25:17.116Z,36.95
2019-02-21T07:27:44.149Z,36.08
2019-02-21T07:30:19.613Z,37.45
2019-02-21T07:32:40.025Z,34.95
2019-02-21T07:35:06.983Z,36.60
2019-02-21T07:37:33.923Z,42.00
2019-02-21T07:40:00.889Z,40.30
2019-02-21T07:42:27.841Z,44.70
2019-02-21T07:44:54.915Z,46.73
2019-02-21T07:47:21.924Z,30.32
2019-02-21T07:49:48.882Z,40.38
2019-02-21T07:52:15.863Z,32.35
2019-02-21T07:54:42.807Z,42.55
2019-02-21T07:57:09.794Z,44.40
2019-02-21T07:59:36.734Z,28.45
2019-02-21T08:02:03.672Z,36.53
2019-02-21T08:04:30.640Z,35.83
2019-02-21T08:06:57.619Z,48.30
2019-02-21T08:09:24.563Z,41.73
2019-02-21T08:11:51.636Z,39.58
2019-02-21T08:14:18.588Z,39.33
2019-02-21T08:16:45.528Z,41.18
2019-02-21T08:19:12.489Z,34.60
2019-02-21T08:21:39.534Z,42.33
2019-02-21T08:24:06.578Z,40.33
2019-02-21T08:26:33.565Z,46.50
2019-02-21T08:29:00.616Z,47.35
2019-02-21T08:31:27.537Z,42.95
2019-02-21T08:34:10.609Z,46.05
2019-02-21T08:36:37.533Z,44.00
2019-02-21T08:39:06.424Z,50.80
2019-02-21T08:41:33.351Z,53.13
2019-02-21T08:44:00.300Z,42.05
2019-02-21T08:46:27.249Z,38.42
2019-02-21T08:48:54.192Z,49.53
2019-02-21T08:51:21.121Z,41.83
2019-02-21T08:53:48.091Z,41.73
2019-02-21T08:56:15.102Z,51.02
2019-02-21T08:58:42.046Z,45.88
2019-02-21T09:01:09.066Z,34.55
2019-02-21T09:03:36.138Z,47.67
2019-02-21T09:06:03.182Z,49.15
2019-02-21T09:08:33.723Z,42.65
2019-02-21T09:10:59.448Z,51.70
2019-02-21T09:13:26.453Z,45.55
2019-02-21T09:15:55.832Z,54.70
2019-02-21T09:18:22.269Z,48.38
2019-02-21T09:20:49.230Z,47.23
2019-02-21T09:23:16.196Z,48.70
2019-02-21T09:25:43.231Z,48.75
2019-02-21T09:28:10.218Z,48.78
2019-02-21T09:30:37.302Z,59.85
2019-02-21T09:33:04.406Z,58.10
2019-02-21T09:35:31.363Z,42.70
2019-02-21T09:37:58.395Z,57.27
2019-02-21T09:40:25.432Z,53.25
2019-02-21T09:42:52.544Z,53.00
2019-02-21T09:45:19.514Z,51.80
2019-02-21T09:47:46.457Z,54.85
2019-02-21T09:50:13.401Z,57.00
2019-02-21T09:52:40.368Z,54.15
2019-02-21T09:55:08.978Z,57.03
2019-02-21T09:57:35.900Z,48.52
2019-02-21T10:00:03.612Z,45.55
2019-02-21T10:02:30.569Z,47.95
2019-02-21T10:05:04.962Z,43.28
2019-02-21T10:07:26.369Z,44.75
2019-02-21T10:09:53.328Z,43.15
2019-02-21T10:12:20.262Z,40.90
2019-02-21T10:14:47.232Z,47.40
2019-02-21T10:17:14.166Z,59.93
2019-02-21T10:19:41.173Z,43.08
2019-02-21T10:22:08.299Z,49.93
2019-02-21T10:24:35.282Z,46.15
2019-02-21T10:27:02.232Z,51.28
2019-02-21T10:29:29.900Z,41.02
2019-02-21T10:31:56.968Z,47.00
2019-02-21T10:34:24.009Z,39.35
2019-02-21T10:36:50.995Z,35.23
2019-02-21T10:39:18.034Z,38.63
2019-02-21T10:41:44.970Z,38.63
2019-02-21T10:44:11.941Z,42.45
2019-02-21T10:46:39.082Z,43.95
2019-02-21T10:49:06.053Z,39.95
2019-02-21T10:51:33.017Z,34.98
2019-02-21T10:54:00.033Z,37.55
2019-02-21T10:56:27.037Z,44.18
2019-02-21T10:58:54.024Z,37.40
2019-02-21T11:01:20.993Z,41.18
2019-02-21T11:03:47.961Z,41.05
2019-02-21T11:06:14.930Z,37.35
2019-02-21T11:08:41.883Z,36.90
2019-02-21T11:11:08.933Z,40.17
2019-02-21T11:13:35.887Z,35.70
2019-02-21T11:16:02.856Z,35.45
2019-02-21T11:18:29.851Z,39.33
2019-02-21T11:20:59.226Z,37.93
2019-02-21T11:23:25.701Z,35.08
2019-02-21T11:25:52.857Z,29.23
2019-02-21T11:28:19.823Z,40.30
2019-02-21T11:30:46.828Z,37.73
2019-02-21T11:33:13.758Z,35.17
2019-02-21T11:35:40.764Z,38.75
2019-02-21T11:38:07.695Z,30.92
2019-02-21T11:40:34.721Z,29.48
2019-02-21T11:43:02.669Z,31.35
2019-02-21T11:45:29.874Z,33.42
2019-02-21T11:47:56.816Z,30.05
2019-02-21T11:50:23.865Z,30.97
2019-02-21T11:53:33.824Z,28.62
2019-02-21T11:56:00.793Z,29.55
2019-02-21T11:58:27.701Z,25.15
2019-02-21T12:00:54.678Z,26.87
2019-02-21T12:03:21.644Z,24.47
2019-02-21T12:05:48.697Z,17.70
2019-02-21T12:08:15.640Z,21.02
2019-02-21T12:10:42.609Z,22.73
2019-02-21T12:13:09.660Z,25.23
2019-02-21T12:15:36.600Z,19.45
2019-02-21T12:18:03.620Z,23.60
2019-02-21T12:20:30.687Z,20.90
2019-02-21T12:22:57.662Z,23.83
2019-02-21T12:25:24.613Z,22.27
2019-02-21T12:27:51.617Z,19.10
2019-02-21T12:30:18.577Z,19.10
2019-02-21T12:32:45.541Z,17.48
2019-02-21T12:35:12.486Z,18.50
2019-02-21T12:37:39.587Z,18.45
2019-02-21T12:40:08.554Z,17.00
2019-02-21T12:42:35.510Z,15.48
2019-02-21T12:45:02.461Z,17.02
2019-02-21T12:47:29.422Z,22.13
2019-02-21T12:49:56.362Z,17.10
2019-02-21T12:52:23.322Z,21.73
2019-02-21T12:54:51.930Z,22.02
2019-02-21T12:57:19.144Z,22.52
2019-02-21T12:59:46.065Z,22.40
2019-02-21T13:02:13.063Z,15.90
2019-02-21T13:04:40.001Z,20.62
2019-02-21T13:07:06.960Z,21.02
2019-02-21T13:09:33.969Z,18.87
2019-02-21T13:12:00.910Z,16.37
2019-02-21T13:14:29.826Z,18.92
2019-02-21T13:16:56.781Z,19.82
2019-02-21T13:19:23.853Z,21.45
2019-02-21T13:21:50.875Z,25.45
2019-02-21T13:24:17.870Z,19.50
2019-02-21T13:26:44.823Z,25.12
2019-02-21T13:29:11.912Z,21.95
2019-02-21T13:31:38.904Z,25.72
2019-02-21T13:34:06.069Z,20.65
2019-02-21T13:36:34.033Z,24.27
2019-02-21T13:39:01.192Z,23.67
2019-02-21T13:41:28.168Z,21.05
2019-02-21T13:43:55.180Z,21.68
2019-02-21T13:46:22.214Z,20.27
2019-02-21T13:48:49.125Z,23.98
2019-02-21T13:51:16.074Z,26.77
2019-02-21T13:53:43.265Z,19.32
2019-02-21T13:56:10.229Z,18.85
2019-02-21T13:58:37.322Z,21.42
2019-02-21T14:01:04.456Z,23.00
2019-02-21T14:03:31.653Z,23.12
2019-02-21T14:06:03.586Z,22.80
2019-02-21T14:08:29.623Z,23.67
2019-02-21T14:10:56.637Z,23.38
2019-02-21T14:13:23.595Z,26.73
2019-02-21T14:15:50.944Z,18.77
2019-02-21T14:18:18.299Z,19.40
2019-02-21T14:20:45.861Z,21.93
2019-02-21T14:23:12.892Z,19.12
2019-02-21T14:25:40.985Z,20.68
2019-02-21T14:28:08.537Z,15.72
2019-02-21T14:30:35.696Z,15.03
2019-02-21T14:33:02.657Z,20.20
2019-02-21T14:35:29.729Z,45.10
2019-02-21T14:37:56.688Z,16.35
2019-02-21T14:40:23.769Z,13.13
2019-02-21T14:42:50.717Z,19.48
2019-02-21T14:45:17.772Z,15.10
2019-02-21T14:47:44.769Z,17.65
2019-02-21T14:50:11.866Z,16.82
2019-02-21T14:52:38.869Z,22.50
2019-02-21T14:55:07.241Z,17.23
2019-02-21T14:57:40.944Z,25.52
2019-02-21T15:00:04.634Z,31.70
2019-02-21T15:02:31.738Z,19.57
2019-02-21T15:04:58.664Z,20.08
2019-02-21T15:07:26.361Z,18.20
2019-02-21T15:09:53.645Z,21.33
2019-02-21T15:12:20.589Z,23.35
2019-02-21T15:14:47.661Z,20.43
2019-02-21T15:17:14.625Z,27.73
2019-02-21T15:19:41.640Z,22.17
2019-02-21T15:22:08.678Z,21.17
2019-02-21T15:24:35.700Z,20.02
2019-02-21T15:27:08.542Z,18.37
2019-02-21T15:29:31.573Z,20.02
2019-02-21T15:31:58.586Z,17.10
2019-02-21T15:34:25.533Z,20.85
2019-02-21T15:36:52.572Z,22.20
2019-02-21T15:39:19.767Z,21.42
2019-02-21T15:41:46.807Z,24.85
2019-02-21T15:44:13.870Z,22.90
2019-02-21T15:46:40.834Z,18.95
2019-02-21T15:49:07.863Z,27.32
2019-02-21T15:51:34.937Z,22.20
2019-02-21T15:54:01.916Z,21.42
2019-02-21T15:56:28.853Z,24.40
2019-02-21T15:58:55.818Z,26.77
2019-02-21T16:01:22.774Z,25.70
2019-02-21T16:03:49.872Z,22.77
2019-02-21T16:06:16.802Z,26.25
2019-02-21T16:08:43.833Z,21.75
2019-02-21T16:11:10.792Z,24.07
2019-02-21T16:13:38.234Z,27.75
2019-02-21T16:16:05.467Z,23.90
2019-02-21T16:18:32.437Z,25.50
2019-02-21T16:20:59.489Z,24.10
2019-02-21T16:23:26.468Z,27.42
2019-02-21T16:25:53.397Z,28.38
2019-02-21T16:28:20.373Z,28.55
2019-02-21T16:30:47.348Z,30.65
2019-02-21T16:33:30.413Z,31.57
2019-02-21T16:35:57.397Z,29.35
2019-02-21T16:38:24.521Z,37.70
2019-02-21T16:40:51.460Z,31.40
2019-02-21T16:43:18.432Z,32.98
2019-02-21T16:45:47.146Z,33.40
2019-02-21T16:48:14.381Z,46.88
2019-02-21T16:50:41.328Z,45.33
2019-02-21T16:53:08.320Z,31.85
2019-02-21T16:55:35.262Z,34.65
2019-02-21T16:58:02.334Z,34.20
2019-02-21T17:00:42.160Z,38.17
2019-02-21T17:02:58.458Z,31.20
2019-02-21T17:05:25.448Z,32.60
2019-02-21T17:07:52.392Z,39.53
2019-02-21T17:10:19.386Z,27.30
2019-02-21T17:12:46.453Z,33.92
2019-02-21T17:15:13.412Z,29.55
2019-02-21T17:17:40.377Z,31.90
2019-02-21T17:20:09.053Z,34.38
2019-02-21T17:22:35.992Z,34.85
2019-02-21T17:25:03.140Z,28.65
2019-02-21T17:27:30.085Z,26.27
2019-02-21T17:29:59.190Z,28.95
2019-02-21T17:32:25.909Z,25.85
2019-02-21T17:34:52.873Z,34.78
2019-02-21T17:37:24.895Z,30.88
2019-02-21T17:39:48.688Z,28.87
2019-02-21T17:42:15.646Z,35.10
2019-02-21T17:44:42.604Z,31.62
2019-02-21T17:47:09.545Z,40.23
2019-02-21T17:49:36.513Z,37.35
2019-02-21T17:52:03.452Z,39.45
2019-02-21T17:54:30.422Z,39.15
2019-02-21T17:56:57.538Z,29.37
2019-02-21T17:59:24.501Z,37.98
2019-02-21T18:01:51.442Z,39.85
2019-02-21T18:04:18.421Z,34.10
2019-02-21T18:06:45.353Z,40.92
2019-02-21T18:09:12.320Z,37.10
2019-02-21T18:11:39.688Z,34.58
2019-02-21T18:14:06.749Z,42.98
2019-02-21T18:16:33.719Z,30.30
2019-02-21T18:19:00.905Z,37.08
2019-02-21T18:21:27.845Z,36.60
2019-02-21T18:23:54.929Z,37.88
2019-02-21T18:26:21.881Z,32.48
2019-02-21T18:28:48.801Z,34.43
2019-02-21T18:31:15.736Z,29.70
2019-02-21T18:33:42.753Z,24.15
2019-02-21T18:36:09.685Z,30.10
2019-02-21T18:38:36.690Z,35.68
2019-02-21T18:41:03.663Z,39.85
2019-02-21T18:43:30.686Z,35.35
2019-02-21T18:45:57.749Z,34.38
2019-02-21T18:48:24.885Z,38.30
2019-02-21T18:50:51.824Z,31.50
2019-02-21T18:53:18.877Z,35.80
2019-02-21T18:55:45.846Z,57.60
2019-02-21T18:58:12.861Z,41.33
2019-02-21T19:00:39.808Z,42.58
2019-02-21T19:03:06.844Z,43.25
2019-02-21T19:05:36.227Z,47.20
2019-02-21T19:08:05.487Z,46.33
2019-02-21T19:10:32.463Z,51.08
2019-02-21T19:12:59.525Z,46.77
2019-02-21T19:15:27.017Z,54.65
2019-02-21T19:17:54.208Z,56.37
2019-02-21T19:20:21.309Z,56.28
2019-02-21T19:22:48.372Z,50.03
2019-02-21T19:25:15.529Z,55.55
2019-02-21T19:27:42.624Z,54.80
2019-02-21T19:30:13.239Z,58.87
2019-02-21T19:32:40.605Z,56.33
2019-02-21T19:35:07.645Z,51.68
2019-02-21T19:37:34.612Z,62.62
2019-02-21T19:40:01.709Z,50.33
2019-02-21T19:42:28.759Z,73.95
2019-02-21T19:44:55.847Z,68.10
2019-02-21T19:47:22.804Z,69.97
2019-02-21T19:49:49.797Z,69.65
2019-02-21T19:52:16.717Z,55.85
2019-02-21T19:54:43.766Z,76.30
2019-02-21T19:57:10.908Z,69.95
2019-02-21T19:59:37.990Z,82.85
2019-02-21T20:02:05.181Z,73.37
2019-02-21T20:04:32.253Z,68.30
2019-02-21T20:06:59.264Z,65.52
2019-02-21T20:09:26.905Z,67.17
2019-02-21T20:11:54.122Z,50.25
2019-02-21T20:14:21.093Z,61.58
2019-02-21T20:16:48.102Z,57.15
2019-02-21T20:19:15.111Z,59.25
2019-02-21T20:21:42.333Z,56.90
2019-02-21T20:24:09.349Z,47.70
2019-02-21T20:26:36.428Z,59.30
2019-02-21T20:29:03.624Z,59.83
2019-02-21T20:31:30.872Z,53.23
2019-02-21T20:33:57.817Z,54.25
2019-02-21T20:36:24.809Z,61.23
2019-02-21T20:38:51.944Z,53.38
2019-02-21T20:41:19.065Z,61.92
2019-02-21T20:43:46.109Z,57.55
2019-02-21T20:46:13.097Z,56.73
2019-02-21T20:48:40.213Z,60.50
2019-02-21T20:51:07.207Z,62.70
2019-02-21T20:53:34.224Z,61.65
2019-02-21T20:56:01.306Z,50.03
2019-02-21T20:58:28.280Z,55.73
2019-02-21T21:00:55.387Z,51.58
2019-02-21T21:03:24.055Z,51.83
2019-02-21T21:05:51.302Z,69.35
2019-02-21T21:08:21.115Z,63.25
2019-02-21T21:10:47.573Z,58.55
2019-02-21T21:13:14.543Z,54.63
2019-02-21T21:15:41.522Z,54.45
2019-02-21T21:18:08.503Z,65.78
2019-02-21T21:20:35.574Z,62.35
2019-02-21T21:23:02.657Z,66.80
2019-02-21T21:25:31.884Z,64.58
2019-02-21T21:27:58.755Z,51.77
2019-02-21T21:30:25.946Z,64.00
2019-02-21T21:32:52.910Z,61.83
2019-02-21T21:35:19.882Z,72.05
2019-02-21T21:37:46.893Z,56.08
2019-02-21T21:40:14.098Z,65.92
2019-02-21T21:42:41.433Z,69.62
2019-02-21T21:45:12.357Z,64.10
2019-02-21T21:47:39.296Z,65.97
2019-02-21T21:50:07.398Z,63.17
2019-02-21T21:52:34.368Z,61.83
2019-02-21T21:55:01.317Z,64.85
2019-02-21T21:57:28.269Z,61.88
2019-02-21T21:59:55.242Z,67.22
2019-02-21T22:02:22.202Z,63.70
2019-02-21T22:04:49.157Z,71.92
2019-02-21T22:07:16.333Z,76.28
2019-02-21T22:09:43.249Z,74.20
2019-02-21T22:12:10.196Z,65.85
2019-02-21T22:14:37.257Z,71.55
2019-02-21T22:17:04.391Z,73.70
2019-02-21T22:19:31.401Z,71.35
2019-02-21T22:21:58.373Z,75.92
2019-02-21T22:24:25.428Z,64.97
2019-02-21T22:26:52.389Z,71.42
2019-02-21T22:29:19.355Z,67.65
2019-02-21T22:31:46.405Z,74.03
2019-02-21T22:34:13.341Z,67.17
2019-02-21T22:36:40.320Z,65.50
2019-02-21T22:39:15.895Z,64.75
2019-02-21T22:41:36.109Z,68.87
2019-02-21T22:44:03.082Z,71.28
2019-02-21T22:46:32.423Z,59.35
2019-02-21T22:48:58.888Z,70.62
2019-02-21T22:51:25.853Z,68.12
2019-02-21T22:53:52.799Z,66.55
2019-02-21T22:56:19.754Z,73.30
2019-02-21T22:58:46.735Z,67.92
2019-02-21T23:01:22.041Z,73.47
2019-02-21T23:04:09.038Z,85.32
2019-02-21T23:06:57.903Z,81.28
2019-02-21T23:09:27.924Z,74.47
2019-02-21T23:11:54.934Z,78.75
2019-02-21T23:14:21.874Z,70.95
2019-02-21T23:16:48.927Z,79.22
2019-02-21T23:19:15.862Z,73.15
2019-02-21T23:21:42.831Z,85.75
2019-02-21T23:24:09.801Z,80.38
2019-02-21T23:26:36.933Z,67.20
2019-02-21T23:29:03.853Z,74.12
2019-02-21T23:31:31.104Z,78.05
2019-02-21T23:33:59.019Z,77.30
2019-02-21T23:36:25.965Z,81.75
2019-02-21T23:38:52.942Z,79.03
2019-02-21T23:41:20.129Z,75.87
2019-02-21T23:43:47.441Z,89.97
2019-02-21T23:46:14.602Z,85.30
2019-02-21T23:48:41.760Z,89.15
2019-02-21T23:51:08.702Z,91.72
2019-02-21T23:53:35.671Z,86.32
2019-02-21T23:56:02.602Z,83.15
2019-02-21T23:58:29.553Z,84.60
